sensor_id;sensor_type;location;lat;lon;timestamp;P1;durP1;ratioP1;P2;durP2;ratioP2
75496;SDS011;64074;47.540;19.072;2022-12-10T00:02:40;13.70;;;9.07;;
75496;SDS011;64074;47.540;19.072;2022-12-10T00:05:49;15.15;;;9.00;;
75496;SDS011;64074;47.540;19.072;2022-12-10T00:13:23;15.37;;;10.20;;
75496;SDS011;64074;47.540;19.072;2022-12-10T00:21:20;16.40;;;9.93;;
75496;SDS011;64074;47.540;19.072;2022-12-10T00:24:56;14.98;;;9.50;;
75496;SDS011;64074;47.540;19.072;2022-12-10T00:28:02;16.45;;;10.23;;
75496;SDS011;64074;47.540;19.072;2022-12-10T00:31:11;16.43;;;10.17;;
75496;SDS011;64074;47.540;19.072;2022-12-10T00:34:25;15.32;;;9.13;;
75496;SDS011;64074;47.540;19.072;2022-12-10T00:38:38;14.63;;;9.52;;
75496;SDS011;64074;47.540;19.072;2022-12-10T00:43:25;15.27;;;9.43;;
75496;SDS011;64074;47.540;19.072;2022-12-10T00:51:37;16.00;;;9.57;;
75496;SDS011;64074;47.540;19.072;2022-12-10T00:56:10;15.95;;;10.07;;
75496;SDS011;64074;47.540;19.072;2022-12-10T00:59:54;16.42;;;10.43;;
75496;SDS011;64074;47.540;19.072;2022-12-10T01:07:53;14.75;;;9.48;;
75496;SDS011;64074;47.540;19.072;2022-12-10T01:11:41;17.13;;;9.70;;
75496;SDS011;64074;47.540;19.072;2022-12-10T01:15:41;15.57;;;9.13;;
75496;SDS011;64074;47.540;19.072;2022-12-10T01:19:50;16.27;;;9.48;;
75496;SDS011;64074;47.540;19.072;2022-12-10T01:24:21;15.60;;;9.35;;
75496;SDS011;64074;47.540;19.072;2022-12-10T01:32:50;15.20;;;9.07;;
75496;SDS011;64074;47.540;19.072;2022-12-10T01:36:15;14.90;;;9.60;;
75496;SDS011;64074;47.540;19.072;2022-12-10T01:39:41;15.27;;;9.68;;
75496;SDS011;64074;47.540;19.072;2022-12-10T01:42:45;16.65;;;9.90;;
75496;SDS011;64074;47.540;19.072;2022-12-10T01:49:31;16.87;;;10.23;;
75496;SDS011;64074;47.540;19.072;2022-12-10T01:53:06;16.50;;;9.32;;
75496;SDS011;64074;47.540;19.072;2022-12-10T01:56:40;17.20;;;10.25;;
75496;SDS011;64074;47.540;19.072;2022-12-10T01:59:46;18.27;;;9.95;;
75496;SDS011;64074;47.540;19.072;2022-12-10T02:03:43;15.43;;;10.13;;
75496;SDS011;64074;47.540;19.072;2022-12-10T02:11:22;15.77;;;9.27;;
75496;SDS011;64074;47.540;19.072;2022-12-10T02:18:16;13.60;;;7.63;;
75496;SDS011;64074;47.540;19.072;2022-12-10T02:21:58;12.82;;;7.57;;
75496;SDS011;64074;47.540;19.072;2022-12-10T02:25:12;10.07;;;6.97;;
75496;SDS011;64074;47.540;19.072;2022-12-10T02:32:21;9.60;;;5.80;;
75496;SDS011;64074;47.540;19.072;2022-12-10T02:36:47;9.15;;;5.95;;
75496;SDS011;64074;47.540;19.072;2022-12-10T02:40:28;7.80;;;5.25;;
75496;SDS011;64074;47.540;19.072;2022-12-10T02:43:53;9.90;;;5.87;;
75496;SDS011;64074;47.540;19.072;2022-12-10T02:48:32;10.52;;;5.72;;
75496;SDS011;64074;47.540;19.072;2022-12-10T02:51:46;11.27;;;6.53;;
75496;SDS011;64074;47.540;19.072;2022-12-10T02:55:18;11.73;;;6.70;;
75496;SDS011;64074;47.540;19.072;2022-12-10T03:04:00;13.33;;;6.93;;
75496;SDS011;64074;47.540;19.072;2022-12-10T03:27:49;17.87;;;8.23;;
75496;SDS011;64074;47.540;19.072;2022-12-10T03:36:35;18.42;;;8.00;;
75496;SDS011;64074;47.540;19.072;2022-12-10T03:40:33;19.58;;;8.20;;
75496;SDS011;64074;47.540;19.072;2022-12-10T03:43:53;18.98;;;8.57;;
75496;SDS011;64074;47.540;19.072;2022-12-10T03:47:04;17.87;;;7.93;;
75496;SDS011;64074;47.540;19.072;2022-12-10T03:50:43;18.48;;;6.95;;
75496;SDS011;64074;47.540;19.072;2022-12-10T03:54:18;18.33;;;7.78;;
75496;SDS011;64074;47.540;19.072;2022-12-10T03:57:50;19.60;;;7.00;;
75496;SDS011;64074;47.540;19.072;2022-12-10T04:01:47;18.70;;;6.90;;
75496;SDS011;64074;47.540;19.072;2022-12-10T04:05:05;20.67;;;8.10;;
75496;SDS011;64074;47.540;19.072;2022-12-10T04:08:15;22.42;;;7.75;;
75496;SDS011;64074;47.540;19.072;2022-12-10T04:11:48;21.20;;;7.88;;
75496;SDS011;64074;47.540;19.072;2022-12-10T04:19:58;23.75;;;8.18;;
75496;SDS011;64074;47.540;19.072;2022-12-10T04:23:57;23.80;;;8.37;;
75496;SDS011;64074;47.540;19.072;2022-12-10T04:27:47;24.48;;;8.57;;
75496;SDS011;64074;47.540;19.072;2022-12-10T04:35:06;24.00;;;9.25;;
75496;SDS011;64074;47.540;19.072;2022-12-10T04:39:00;24.55;;;8.70;;
75496;SDS011;64074;47.540;19.072;2022-12-10T04:42:19;25.63;;;9.37;;
75496;SDS011;64074;47.540;19.072;2022-12-10T04:47:08;23.00;;;8.73;;
75496;SDS011;64074;47.540;19.072;2022-12-10T04:51:27;22.67;;;8.88;;
75496;SDS011;64074;47.540;19.072;2022-12-10T04:54:39;22.85;;;8.80;;
75496;SDS011;64074;47.540;19.072;2022-12-10T04:58:18;27.08;;;10.07;;
75496;SDS011;64074;47.540;19.072;2022-12-10T05:02:24;23.80;;;9.57;;
75496;SDS011;64074;47.540;19.072;2022-12-10T05:06:42;26.20;;;10.35;;
75496;SDS011;64074;47.540;19.072;2022-12-10T05:10:04;28.80;;;11.32;;
75496;SDS011;64074;47.540;19.072;2022-12-10T05:15:21;29.45;;;11.23;;
75496;SDS011;64074;47.540;19.072;2022-12-10T05:32:03;30.40;;;12.32;;
75496;SDS011;64074;47.540;19.072;2022-12-10T05:36:03;28.50;;;12.45;;
75496;SDS011;64074;47.540;19.072;2022-12-10T05:39:25;30.58;;;12.95;;
75496;SDS011;64074;47.540;19.072;2022-12-10T05:42:50;30.77;;;13.23;;
75496;SDS011;64074;47.540;19.072;2022-12-10T05:46:01;28.25;;;12.27;;
75496;SDS011;64074;47.540;19.072;2022-12-10T05:49:13;27.60;;;11.82;;
75496;SDS011;64074;47.540;19.072;2022-12-10T05:57:03;26.17;;;11.85;;
75496;SDS011;64074;47.540;19.072;2022-12-10T06:00:15;27.80;;;12.70;;
75496;SDS011;64074;47.540;19.072;2022-12-10T06:04:14;27.52;;;12.02;;
75496;SDS011;64074;47.540;19.072;2022-12-10T06:18:00;24.25;;;11.70;;
75496;SDS011;64074;47.540;19.072;2022-12-10T06:21:04;26.53;;;12.53;;
75496;SDS011;64074;47.540;19.072;2022-12-10T06:24:15;26.15;;;12.88;;
75496;SDS011;64074;47.540;19.072;2022-12-10T06:27:37;23.42;;;11.48;;
75496;SDS011;64074;47.540;19.072;2022-12-10T06:31:22;20.92;;;10.05;;
75496;SDS011;64074;47.540;19.072;2022-12-10T06:35:25;25.50;;;12.32;;
75496;SDS011;64074;47.540;19.072;2022-12-10T06:38:40;24.03;;;10.43;;
75496;SDS011;64074;47.540;19.072;2022-12-10T06:50:26;23.85;;;11.00;;
75496;SDS011;64074;47.540;19.072;2022-12-10T06:55:32;29.65;;;13.27;;
75496;SDS011;64074;47.540;19.072;2022-12-10T06:58:51;27.43;;;11.77;;
75496;SDS011;64074;47.540;19.072;2022-12-10T07:06:50;25.55;;;12.30;;
75496;SDS011;64074;47.540;19.072;2022-12-10T07:09:53;28.95;;;13.05;;
75496;SDS011;64074;47.540;19.072;2022-12-10T07:13:03;33.72;;;15.27;;
75496;SDS011;64074;47.540;19.072;2022-12-10T07:16:26;31.63;;;14.87;;
75496;SDS011;64074;47.540;19.072;2022-12-10T07:20:16;33.08;;;15.23;;
75496;SDS011;64074;47.540;19.072;2022-12-10T07:23:31;34.13;;;15.55;;
75496;SDS011;64074;47.540;19.072;2022-12-10T07:26:59;30.55;;;14.68;;
75496;SDS011;64074;47.540;19.072;2022-12-10T07:33:49;30.00;;;14.03;;
75496;SDS011;64074;47.540;19.072;2022-12-10T07:37:54;32.08;;;15.18;;
75496;SDS011;64074;47.540;19.072;2022-12-10T07:41:04;31.50;;;14.80;;
75496;SDS011;64074;47.540;19.072;2022-12-10T07:44:10;32.25;;;15.70;;
75496;SDS011;64074;47.540;19.072;2022-12-10T07:47:34;32.00;;;14.60;;
75496;SDS011;64074;47.540;19.072;2022-12-10T07:54:48;30.27;;;14.65;;
75496;SDS011;64074;47.540;19.072;2022-12-10T07:59:15;31.63;;;14.88;;
75496;SDS011;64074;47.540;19.072;2022-12-10T08:02:19;29.50;;;14.32;;
75496;SDS011;64074;47.540;19.072;2022-12-10T08:05:38;28.83;;;13.90;;
75496;SDS011;64074;47.540;19.072;2022-12-10T08:08:42;28.07;;;13.20;;
75496;SDS011;64074;47.540;19.072;2022-12-10T08:15:24;28.67;;;14.00;;
75496;SDS011;64074;47.540;19.072;2022-12-10T08:19:01;25.83;;;11.77;;
75496;SDS011;64074;47.540;19.072;2022-12-10T08:28:41;25.77;;;12.30;;
75496;SDS011;64074;47.540;19.072;2022-12-10T08:33:46;25.10;;;12.10;;
75496;SDS011;64074;47.540;19.072;2022-12-10T08:37:58;24.13;;;11.40;;
75496;SDS011;64074;47.540;19.072;2022-12-10T08:41:26;23.85;;;12.45;;
75496;SDS011;64074;47.540;19.072;2022-12-10T08:49:30;22.30;;;11.50;;
75496;SDS011;64074;47.540;19.072;2022-12-10T08:53:23;22.67;;;11.38;;
75496;SDS011;64074;47.540;19.072;2022-12-10T09:00:39;26.77;;;13.35;;
75496;SDS011;64074;47.540;19.072;2022-12-10T09:03:56;24.13;;;12.00;;
75496;SDS011;64074;47.540;19.072;2022-12-10T09:07:24;25.03;;;12.40;;
75496;SDS011;64074;47.540;19.072;2022-12-10T09:12:35;23.52;;;10.70;;
75496;SDS011;64074;47.540;19.072;2022-12-10T09:15:51;26.33;;;12.52;;
75496;SDS011;64074;47.540;19.072;2022-12-10T09:19:20;23.63;;;11.90;;
75496;SDS011;64074;47.540;19.072;2022-12-10T09:22:23;24.13;;;11.98;;
75496;SDS011;64074;47.540;19.072;2022-12-10T09:25:34;27.40;;;12.97;;
75496;SDS011;64074;47.540;19.072;2022-12-10T09:29:13;26.85;;;12.35;;
75496;SDS011;64074;47.540;19.072;2022-12-10T09:32:57;27.20;;;12.48;;
75496;SDS011;64074;47.540;19.072;2022-12-10T09:36:11;27.33;;;12.57;;
75496;SDS011;64074;47.540;19.072;2022-12-10T09:45:02;26.33;;;12.17;;
75496;SDS011;64074;47.540;19.072;2022-12-10T09:53:00;24.98;;;12.25;;
75496;SDS011;64074;47.540;19.072;2022-12-10T09:56:14;25.27;;;11.30;;
75496;SDS011;64074;47.540;19.072;2022-12-10T10:00:22;24.35;;;11.40;;
75496;SDS011;64074;47.540;19.072;2022-12-10T10:04:02;25.27;;;12.10;;
75496;SDS011;64074;47.540;19.072;2022-12-10T10:07:05;25.15;;;12.30;;
75496;SDS011;64074;47.540;19.072;2022-12-10T10:10:22;24.33;;;11.77;;
75496;SDS011;64074;47.540;19.072;2022-12-10T10:18:46;25.98;;;12.85;;
75496;SDS011;64074;47.540;19.072;2022-12-10T10:23:41;31.93;;;14.43;;
75496;SDS011;64074;47.540;19.072;2022-12-10T10:36:43;36.78;;;15.63;;
75496;SDS011;64074;47.540;19.072;2022-12-10T10:41:06;40.38;;;17.95;;
75496;SDS011;64074;47.540;19.072;2022-12-10T10:44:33;37.63;;;17.40;;
75496;SDS011;64074;47.540;19.072;2022-12-10T10:48:25;41.30;;;17.83;;
75496;SDS011;64074;47.540;19.072;2022-12-10T10:58:25;42.00;;;18.50;;
75496;SDS011;64074;47.540;19.072;2022-12-10T11:08:44;39.22;;;18.15;;
75496;SDS011;64074;47.540;19.072;2022-12-10T11:12:57;42.30;;;17.95;;
75496;SDS011;64074;47.540;19.072;2022-12-10T11:26:46;37.80;;;16.33;;
75496;SDS011;64074;47.540;19.072;2022-12-10T11:31:24;39.72;;;17.58;;
75496;SDS011;64074;47.540;19.072;2022-12-10T11:47:08;44.35;;;20.67;;
75496;SDS011;64074;47.540;19.072;2022-12-10T11:50:28;54.88;;;24.65;;
75496;SDS011;64074;47.540;19.072;2022-12-10T12:08:55;51.17;;;23.05;;
75496;SDS011;64074;47.540;19.072;2022-12-10T12:13:47;51.25;;;22.88;;
75496;SDS011;64074;47.540;19.072;2022-12-10T12:17:35;51.75;;;22.85;;
75496;SDS011;64074;47.540;19.072;2022-12-10T12:21:59;48.53;;;21.25;;
75496;SDS011;64074;47.540;19.072;2022-12-10T12:30:31;49.83;;;20.30;;
75496;SDS011;64074;47.540;19.072;2022-12-10T12:33:58;49.13;;;20.55;;
75496;SDS011;64074;47.540;19.072;2022-12-10T12:37:36;50.60;;;21.35;;
75496;SDS011;64074;47.540;19.072;2022-12-10T12:40:46;48.05;;;20.92;;
75496;SDS011;64074;47.540;19.072;2022-12-10T12:44:14;44.73;;;19.27;;
75496;SDS011;64074;47.540;19.072;2022-12-10T13:09:15;50.72;;;21.60;;
75496;SDS011;64074;47.540;19.072;2022-12-10T13:12:27;49.50;;;22.08;;
75496;SDS011;64074;47.540;19.072;2022-12-10T13:26:27;46.63;;;20.60;;
75496;SDS011;64074;47.540;19.072;2022-12-10T13:30:32;49.08;;;21.08;;
75496;SDS011;64074;47.540;19.072;2022-12-10T13:33:50;49.03;;;21.95;;
75496;SDS011;64074;47.540;19.072;2022-12-10T13:37:28;52.00;;;22.00;;
75496;SDS011;64074;47.540;19.072;2022-12-10T14:07:31;52.03;;;23.10;;
75496;SDS011;64074;47.540;19.072;2022-12-10T14:11:58;52.85;;;23.35;;
75496;SDS011;64074;47.540;19.072;2022-12-10T14:15:05;53.72;;;22.92;;
75496;SDS011;64074;47.540;19.072;2022-12-10T14:19:38;55.60;;;23.27;;
75496;SDS011;64074;47.540;19.072;2022-12-10T14:28:31;50.67;;;22.47;;
75496;SDS011;64074;47.540;19.072;2022-12-10T14:36:48;49.88;;;22.42;;
75496;SDS011;64074;47.540;19.072;2022-12-10T14:40:41;55.00;;;24.30;;
75496;SDS011;64074;47.540;19.072;2022-12-10T14:44:22;49.97;;;23.30;;
75496;SDS011;64074;47.540;19.072;2022-12-10T14:47:53;51.57;;;23.20;;
75496;SDS011;64074;47.540;19.072;2022-12-10T14:51:03;46.72;;;21.27;;
75496;SDS011;64074;47.540;19.072;2022-12-10T14:54:23;51.30;;;23.25;;
75496;SDS011;64074;47.540;19.072;2022-12-10T15:06:27;46.17;;;20.17;;
75496;SDS011;64074;47.540;19.072;2022-12-10T15:09:45;50.72;;;22.40;;
75496;SDS011;64074;47.540;19.072;2022-12-10T15:14:17;51.17;;;23.15;;
75496;SDS011;64074;47.540;19.072;2022-12-10T15:22:45;49.45;;;22.83;;
75496;SDS011;64074;47.540;19.072;2022-12-10T15:32:14;53.92;;;25.15;;
75496;SDS011;64074;47.540;19.072;2022-12-10T15:35:22;54.88;;;26.55;;
75496;SDS011;64074;47.540;19.072;2022-12-10T15:38:32;49.35;;;23.77;;
75496;SDS011;64074;47.540;19.072;2022-12-10T15:56:06;47.22;;;23.48;;
75496;SDS011;64074;47.540;19.072;2022-12-10T15:59:17;46.67;;;22.25;;
75496;SDS011;64074;47.540;19.072;2022-12-10T16:03:56;48.15;;;21.73;;
75496;SDS011;64074;47.540;19.072;2022-12-10T16:07:07;41.57;;;19.40;;
75496;SDS011;64074;47.540;19.072;2022-12-10T16:11:32;47.92;;;21.00;;
75496;SDS011;64074;47.540;19.072;2022-12-10T16:15:28;44.25;;;22.10;;
75496;SDS011;64074;47.540;19.072;2022-12-10T16:18:55;47.40;;;22.02;;
75496;SDS011;64074;47.540;19.072;2022-12-10T16:23:07;42.72;;;20.20;;
75496;SDS011;64074;47.540;19.072;2022-12-10T16:26:24;51.43;;;23.20;;
75496;SDS011;64074;47.540;19.072;2022-12-10T16:29:29;47.15;;;22.63;;
75496;SDS011;64074;47.540;19.072;2022-12-10T16:32:32;47.70;;;23.00;;
75496;SDS011;64074;47.540;19.072;2022-12-10T16:35:36;46.58;;;22.00;;
75496;SDS011;64074;47.540;19.072;2022-12-10T16:38:39;43.28;;;20.67;;
75496;SDS011;64074;47.540;19.072;2022-12-10T16:41:43;48.40;;;22.13;;
75496;SDS011;64074;47.540;19.072;2022-12-10T16:44:45;47.22;;;22.23;;
75496;SDS011;64074;47.540;19.072;2022-12-10T16:48:02;46.42;;;21.95;;
75496;SDS011;64074;47.540;19.072;2022-12-10T16:51:15;46.90;;;21.48;;
75496;SDS011;64074;47.540;19.072;2022-12-10T17:00:09;43.53;;;19.60;;
75496;SDS011;64074;47.540;19.072;2022-12-10T17:12:54;47.40;;;21.45;;
75496;SDS011;64074;47.540;19.072;2022-12-10T17:17:13;46.83;;;20.63;;
75496;SDS011;64074;47.540;19.072;2022-12-10T17:20:29;45.10;;;19.63;;
75496;SDS011;64074;47.540;19.072;2022-12-10T17:24:27;46.42;;;20.95;;
75496;SDS011;64074;47.540;19.072;2022-12-10T17:28:05;46.00;;;20.85;;
75496;SDS011;64074;47.540;19.072;2022-12-10T17:31:23;46.95;;;20.88;;
75496;SDS011;64074;47.540;19.072;2022-12-10T17:34:27;45.83;;;21.33;;
75496;SDS011;64074;47.540;19.072;2022-12-10T17:37:36;43.17;;;20.43;;
75496;SDS011;64074;47.540;19.072;2022-12-10T17:41:05;45.85;;;20.42;;
75496;SDS011;64074;47.540;19.072;2022-12-10T17:44:16;42.13;;;20.30;;
75496;SDS011;64074;47.540;19.072;2022-12-10T17:48:12;42.17;;;19.05;;
75496;SDS011;64074;47.540;19.072;2022-12-10T17:51:23;36.72;;;18.05;;
75496;SDS011;64074;47.540;19.072;2022-12-10T17:56:14;36.97;;;18.17;;
75496;SDS011;64074;47.540;19.072;2022-12-10T18:00:35;39.58;;;18.02;;
75496;SDS011;64074;47.540;19.072;2022-12-10T18:03:48;42.78;;;20.60;;
75496;SDS011;64074;47.540;19.072;2022-12-10T18:07:49;39.55;;;18.30;;
75496;SDS011;64074;47.540;19.072;2022-12-10T18:15:53;37.87;;;17.43;;
75496;SDS011;64074;47.540;19.072;2022-12-10T18:25:15;36.47;;;17.60;;
75496;SDS011;64074;47.540;19.072;2022-12-10T18:32:23;40.47;;;19.05;;
75496;SDS011;64074;47.540;19.072;2022-12-10T18:36:08;38.87;;;18.23;;
75496;SDS011;64074;47.540;19.072;2022-12-10T18:39:29;35.30;;;17.30;;
75496;SDS011;64074;47.540;19.072;2022-12-10T19:03:08;28.65;;;14.02;;
75496;SDS011;64074;47.540;19.072;2022-12-10T19:27:33;26.48;;;14.00;;
75496;SDS011;64074;47.540;19.072;2022-12-10T19:32:33;30.02;;;14.35;;
75496;SDS011;64074;47.540;19.072;2022-12-10T19:35:36;31.05;;;15.15;;
75496;SDS011;64074;47.540;19.072;2022-12-10T19:38:51;27.75;;;14.40;;
75496;SDS011;64074;47.540;19.072;2022-12-10T19:41:55;27.70;;;14.23;;
75496;SDS011;64074;47.540;19.072;2022-12-10T19:53:51;27.38;;;13.77;;
75496;SDS011;64074;47.540;19.072;2022-12-10T19:57:48;27.88;;;13.75;;
75496;SDS011;64074;47.540;19.072;2022-12-10T20:01:01;26.00;;;13.00;;
75496;SDS011;64074;47.540;19.072;2022-12-10T20:04:15;28.20;;;13.70;;
75496;SDS011;64074;47.540;19.072;2022-12-10T20:09:04;26.67;;;12.30;;
75496;SDS011;64074;47.540;19.072;2022-12-10T20:13:01;20.13;;;10.57;;
75496;SDS011;64074;47.540;19.072;2022-12-10T20:16:18;25.38;;;13.82;;
75496;SDS011;64074;47.540;19.072;2022-12-10T20:20:41;24.80;;;12.77;;
75496;SDS011;64074;47.540;19.072;2022-12-10T20:41:02;21.90;;;11.85;;
75496;SDS011;64074;47.540;19.072;2022-12-10T20:44:18;21.47;;;12.00;;
75496;SDS011;64074;47.540;19.072;2022-12-10T20:47:31;24.05;;;11.82;;
75496;SDS011;64074;47.540;19.072;2022-12-10T20:50:48;22.52;;;11.57;;
75496;SDS011;64074;47.540;19.072;2022-12-10T20:54:40;21.08;;;11.35;;
75496;SDS011;64074;47.540;19.072;2022-12-10T20:57:44;20.23;;;10.68;;
75496;SDS011;64074;47.540;19.072;2022-12-10T21:00:48;20.53;;;11.00;;
75496;SDS011;64074;47.540;19.072;2022-12-10T21:04:17;18.80;;;10.52;;
75496;SDS011;64074;47.540;19.072;2022-12-10T21:08:43;17.63;;;9.68;;
75496;SDS011;64074;47.540;19.072;2022-12-10T21:11:59;17.65;;;9.52;;
75496;SDS011;64074;47.540;19.072;2022-12-10T21:15:26;17.55;;;9.88;;
75496;SDS011;64074;47.540;19.072;2022-12-10T21:24:49;16.92;;;8.88;;
75496;SDS011;64074;47.540;19.072;2022-12-10T21:28:03;18.48;;;9.48;;
75496;SDS011;64074;47.540;19.072;2022-12-10T21:37:10;17.58;;;8.23;;
75496;SDS011;64074;47.540;19.072;2022-12-10T21:41:32;15.63;;;8.77;;
75496;SDS011;64074;47.540;19.072;2022-12-10T21:45:00;14.35;;;8.35;;
75496;SDS011;64074;47.540;19.072;2022-12-10T21:48:04;16.60;;;8.50;;
75496;SDS011;64074;47.540;19.072;2022-12-10T21:51:16;17.30;;;8.75;;
75496;SDS011;64074;47.540;19.072;2022-12-10T21:55:21;15.35;;;8.35;;
75496;SDS011;64074;47.540;19.072;2022-12-10T21:58:32;16.10;;;8.80;;
75496;SDS011;64074;47.540;19.072;2022-12-10T22:01:36;14.35;;;8.00;;
75496;SDS011;64074;47.540;19.072;2022-12-10T22:09:11;18.33;;;9.32;;
75496;SDS011;64074;47.540;19.072;2022-12-10T22:12:32;15.32;;;9.05;;
75496;SDS011;64074;47.540;19.072;2022-12-10T22:22:17;17.00;;;9.07;;
75496;SDS011;64074;47.540;19.072;2022-12-10T22:25:38;18.38;;;9.10;;
75496;SDS011;64074;47.540;19.072;2022-12-10T22:29:55;16.08;;;7.50;;
75496;SDS011;64074;47.540;19.072;2022-12-10T22:33:47;16.73;;;9.13;;
75496;SDS011;64074;47.540;19.072;2022-12-10T22:45:21;17.25;;;8.68;;
75496;SDS011;64074;47.540;19.072;2022-12-10T22:52:35;13.87;;;7.73;;
75496;SDS011;64074;47.540;19.072;2022-12-10T22:56:11;16.63;;;8.83;;
75496;SDS011;64074;47.540;19.072;2022-12-10T22:59:56;16.08;;;8.23;;
75496;SDS011;64074;47.540;19.072;2022-12-10T23:03:52;16.33;;;8.68;;
75496;SDS011;64074;47.540;19.072;2022-12-10T23:07:16;14.30;;;7.88;;
75496;SDS011;64074;47.540;19.072;2022-12-10T23:10:53;16.03;;;7.90;;
75496;SDS011;64074;47.540;19.072;2022-12-10T23:14:05;17.00;;;8.00;;
75496;SDS011;64074;47.540;19.072;2022-12-10T23:21:22;17.90;;;8.57;;
75496;SDS011;64074;47.540;19.072;2022-12-10T23:24:36;18.02;;;8.40;;
75496;SDS011;64074;47.540;19.072;2022-12-10T23:28:26;14.57;;;6.90;;
75496;SDS011;64074;47.540;19.072;2022-12-10T23:32:17;17.97;;;8.90;;
75496;SDS011;64074;47.540;19.072;2022-12-10T23:35:56;18.33;;;9.40;;
75496;SDS011;64074;47.540;19.072;2022-12-10T23:38:59;16.05;;;8.38;;
75496;SDS011;64074;47.540;19.072;2022-12-10T23:42:29;14.27;;;6.97;;
75496;SDS011;64074;47.540;19.072;2022-12-10T23:46:55;19.17;;;8.33;;
75496;SDS011;64074;47.540;19.072;2022-12-10T23:50:06;18.40;;;8.87;;
75496;SDS011;64074;47.540;19.072;2022-12-10T23:53:50;17.25;;;8.77;;
75496;SDS011;64074;47.540;19.072;2022-12-10T23:57:26;19.23;;;9.00;;
